sensor_id;sensor_type;location;lat;lon;timestamp;P1;durP1;ratioP1;P2;durP2;ratioP2
67712;SDS011;67640;55.784;49.138;2023-02-24T00:01:16;15.25;;;4.33;;
67712;SDS011;67640;55.784;49.138;2023-02-24T00:06:39;12.93;;;3.58;;
67712;SDS011;67640;55.784;49.138;2023-02-24T00:17:22;9.70;;;3.12;;
67712;SDS011;67640;55.784;49.138;2023-02-24T00:22:27;14.10;;;3.87;;
67712;SDS011;67640;55.784;49.138;2023-02-24T00:27:46;10.97;;;3.57;;
67712;SDS011;67640;55.784;49.138;2023-02-24T00:32:51;10.78;;;3.95;;
67712;SDS011;67640;55.784;49.138;2023-02-24T00:38:10;9.83;;;3.20;;
67712;SDS011;67640;55.784;49.138;2023-02-24T00:43:15;7.50;;;2.90;;
67712;SDS011;67640;55.784;49.138;2023-02-24T00:48:34;6.42;;;2.17;;
67712;SDS011;67640;55.784;49.138;2023-02-24T00:53:44;8.70;;;2.50;;
67712;SDS011;67640;55.784;49.138;2023-02-24T00:59:03;11.33;;;3.50;;
67712;SDS011;67640;55.784;49.138;2023-02-24T01:04:20;7.42;;;2.70;;
67712;SDS011;67640;55.784;49.138;2023-02-24T01:09:26;7.97;;;3.13;;
67712;SDS011;67640;55.784;49.138;2023-02-24T01:14:46;12.33;;;2.87;;
67712;SDS011;67640;55.784;49.138;2023-02-24T01:19:51;8.88;;;3.60;;
67712;SDS011;67640;55.784;49.138;2023-02-24T01:25:10;12.60;;;3.58;;
67712;SDS011;67640;55.784;49.138;2023-02-24T01:30:30;6.92;;;2.40;;
67712;SDS011;67640;55.784;49.138;2023-02-24T01:35:35;9.93;;;3.63;;
67712;SDS011;67640;55.784;49.138;2023-02-24T01:46:18;9.15;;;3.37;;
67712;SDS011;67640;55.784;49.138;2023-02-24T01:51:39;9.23;;;2.73;;
67712;SDS011;67640;55.784;49.138;2023-02-24T01:56:53;16.55;;;4.08;;
67712;SDS011;67640;55.784;49.138;2023-02-24T02:02:14;7.85;;;2.87;;
67712;SDS011;67640;55.784;49.138;2023-02-24T02:07:34;7.80;;;2.53;;
67712;SDS011;67640;55.784;49.138;2023-02-24T02:12:40;11.05;;;3.10;;
67712;SDS011;67640;55.784;49.138;2023-02-24T02:34:31;12.25;;;3.40;;
67712;SDS011;67640;55.784;49.138;2023-02-24T02:56:11;12.50;;;3.30;;
67712;SDS011;67640;55.784;49.138;2023-02-24T03:01:15;12.73;;;3.92;;
67712;SDS011;67640;55.784;49.138;2023-02-24T03:12:00;13.17;;;3.63;;
67712;SDS011;67640;55.784;49.138;2023-02-24T03:17:21;6.80;;;1.87;;
67712;SDS011;67640;55.784;49.138;2023-02-24T03:28:01;11.60;;;3.87;;
67712;SDS011;67640;55.784;49.138;2023-02-24T03:38:28;8.55;;;2.87;;
67712;SDS011;67640;55.784;49.138;2023-02-24T03:43:59;15.63;;;3.77;;
67712;SDS011;67640;55.784;49.138;2023-02-24T03:49:07;10.53;;;3.13;;
67712;SDS011;67640;55.784;49.138;2023-02-24T04:05:29;13.93;;;3.70;;
67712;SDS011;67640;55.784;49.138;2023-02-24T04:16:15;9.48;;;3.27;;
67712;SDS011;67640;55.784;49.138;2023-02-24T04:21:33;14.00;;;4.05;;
67712;SDS011;67640;55.784;49.138;2023-02-24T04:26:42;10.17;;;3.33;;
67712;SDS011;67640;55.784;49.138;2023-02-24T04:32:02;17.52;;;5.12;;
67712;SDS011;67640;55.784;49.138;2023-02-24T04:37:21;12.10;;;3.33;;
67712;SDS011;67640;55.784;49.138;2023-02-24T04:42:26;9.73;;;2.77;;
67712;SDS011;67640;55.784;49.138;2023-02-24T04:47:46;14.38;;;4.00;;
67712;SDS011;67640;55.784;49.138;2023-02-24T04:53:06;12.82;;;3.98;;
67712;SDS011;67640;55.784;49.138;2023-02-24T04:58:13;12.15;;;4.75;;
67712;SDS011;67640;55.784;49.138;2023-02-24T05:03:30;11.65;;;4.03;;
67712;SDS011;67640;55.784;49.138;2023-02-24T05:08:34;18.77;;;4.67;;
67712;SDS011;67640;55.784;49.138;2023-02-24T05:13:54;12.80;;;3.80;;
67712;SDS011;67640;55.784;49.138;2023-02-24T05:19:13;8.23;;;2.37;;
67712;SDS011;67640;55.784;49.138;2023-02-24T05:24:38;8.87;;;3.57;;
67712;SDS011;67640;55.784;49.138;2023-02-24T05:29:57;11.40;;;3.27;;
67712;SDS011;67640;55.784;49.138;2023-02-24T05:35:02;10.93;;;3.50;;
67712;SDS011;67640;55.784;49.138;2023-02-24T05:40:08;10.87;;;3.33;;
67712;SDS011;67640;55.784;49.138;2023-02-24T05:45:15;11.38;;;3.40;;
67712;SDS011;67640;55.784;49.138;2023-02-24T05:50:29;7.03;;;2.23;;
67712;SDS011;67640;55.784;49.138;2023-02-24T05:55:46;10.53;;;3.57;;
67712;SDS011;67640;55.784;49.138;2023-02-24T06:00:51;11.22;;;3.20;;
67712;SDS011;67640;55.784;49.138;2023-02-24T06:06:11;11.15;;;3.08;;
67712;SDS011;67640;55.784;49.138;2023-02-24T06:11:18;15.75;;;5.92;;
67712;SDS011;67640;55.784;49.138;2023-02-24T06:16:38;9.50;;;3.00;;
67712;SDS011;67640;55.784;49.138;2023-02-24T06:21:58;11.10;;;3.67;;
67712;SDS011;67640;55.784;49.138;2023-02-24T06:27:03;8.23;;;2.65;;
67712;SDS011;67640;55.784;49.138;2023-02-24T06:32:23;9.23;;;3.33;;
67712;SDS011;67640;55.784;49.138;2023-02-24T06:37:29;10.55;;;3.83;;
67712;SDS011;67640;55.784;49.138;2023-02-24T06:42:47;12.80;;;4.08;;
67712;SDS011;67640;55.784;49.138;2023-02-24T06:47:52;10.95;;;3.58;;
67712;SDS011;67640;55.784;49.138;2023-02-24T06:52:58;16.10;;;3.87;;
67712;SDS011;67640;55.784;49.138;2023-02-24T06:58:03;9.75;;;3.75;;
67712;SDS011;67640;55.784;49.138;2023-02-24T07:09:12;12.70;;;3.13;;
67712;SDS011;67640;55.784;49.138;2023-02-24T07:14:19;13.78;;;4.33;;
67712;SDS011;67640;55.784;49.138;2023-02-24T07:19:26;9.73;;;3.87;;
67712;SDS011;67640;55.784;49.138;2023-02-24T07:24:45;12.17;;;3.63;;
67712;SDS011;67640;55.784;49.138;2023-02-24T07:29:50;13.40;;;3.70;;
67712;SDS011;67640;55.784;49.138;2023-02-24T07:35:13;12.98;;;4.10;;
67712;SDS011;67640;55.784;49.138;2023-02-24T07:40:32;13.57;;;4.37;;
67712;SDS011;67640;55.784;49.138;2023-02-24T07:45:51;11.97;;;3.15;;
67712;SDS011;67640;55.784;49.138;2023-02-24T07:51:11;14.23;;;3.93;;
67712;SDS011;67640;55.784;49.138;2023-02-24T07:56:17;15.95;;;4.70;;
67712;SDS011;67640;55.784;49.138;2023-02-24T08:01:23;11.80;;;3.87;;
67712;SDS011;67640;55.784;49.138;2023-02-24T08:06:43;14.18;;;4.45;;
67712;SDS011;67640;55.784;49.138;2023-02-24T08:17:09;10.58;;;3.55;;
67712;SDS011;67640;55.784;49.138;2023-02-24T08:22:15;17.98;;;4.72;;
67712;SDS011;67640;55.784;49.138;2023-02-24T08:27:40;14.60;;;3.60;;
67712;SDS011;67640;55.784;49.138;2023-02-24T08:33:04;15.65;;;4.55;;
67712;SDS011;67640;55.784;49.138;2023-02-24T08:43:54;12.07;;;3.87;;
67712;SDS011;67640;55.784;49.138;2023-02-24T08:49:00;13.72;;;3.83;;
67712;SDS011;67640;55.784;49.138;2023-02-24T08:54:20;16.35;;;5.20;;
67712;SDS011;67640;55.784;49.138;2023-02-24T08:59:40;16.65;;;4.20;;
67712;SDS011;67640;55.784;49.138;2023-02-24T09:05:01;15.78;;;4.97;;
67712;SDS011;67640;55.784;49.138;2023-02-24T09:10:10;16.15;;;5.00;;
67712;SDS011;67640;55.784;49.138;2023-02-24T09:15:27;18.33;;;5.63;;
67712;SDS011;67640;55.784;49.138;2023-02-24T09:20:51;16.27;;;4.25;;
67712;SDS011;67640;55.784;49.138;2023-02-24T09:26:16;11.83;;;4.40;;
67712;SDS011;67640;55.784;49.138;2023-02-24T09:31:39;17.30;;;5.62;;
67712;SDS011;67640;55.784;49.138;2023-02-24T09:37:05;14.93;;;4.95;;
67712;SDS011;67640;55.784;49.138;2023-02-24T09:42:29;20.20;;;4.90;;
67712;SDS011;67640;55.784;49.138;2023-02-24T09:47:51;15.98;;;4.70;;
67712;SDS011;67640;55.784;49.138;2023-02-24T09:53:16;15.07;;;4.80;;
67712;SDS011;67640;55.784;49.138;2023-02-24T10:15:43;18.20;;;5.47;;
67712;SDS011;67640;55.784;49.138;2023-02-24T10:38:03;17.32;;;5.78;;
67712;SDS011;67640;55.784;49.138;2023-02-24T10:43:08;19.50;;;5.03;;
67712;SDS011;67640;55.784;49.138;2023-02-24T10:48:27;14.25;;;4.22;;
67712;SDS011;67640;55.784;49.138;2023-02-24T10:53:48;12.65;;;4.37;;
67712;SDS011;67640;55.784;49.138;2023-02-24T11:04:52;11.50;;;3.45;;
67712;SDS011;67640;55.784;49.138;2023-02-24T11:10:10;18.67;;;4.07;;
67712;SDS011;67640;55.784;49.138;2023-02-24T11:21:17;14.13;;;4.22;;
67712;SDS011;67640;55.784;49.138;2023-02-24T11:37:13;10.82;;;3.92;;
67712;SDS011;67640;55.784;49.138;2023-02-24T11:42:19;15.17;;;5.20;;
67712;SDS011;67640;55.784;49.138;2023-02-24T11:47:47;10.80;;;3.90;;
67712;SDS011;67640;55.784;49.138;2023-02-24T11:52:53;15.65;;;4.78;;
67712;SDS011;67640;55.784;49.138;2023-02-24T12:08:44;24.65;;;5.97;;
67712;SDS011;67640;55.784;49.138;2023-02-24T12:25:39;23.38;;;7.65;;
67712;SDS011;67640;55.784;49.138;2023-02-24T12:31:01;21.87;;;7.17;;
67712;SDS011;67640;55.784;49.138;2023-02-24T13:14:56;14.90;;;5.28;;
67712;SDS011;67640;55.784;49.138;2023-02-24T13:25:40;10.77;;;4.47;;
67712;SDS011;67640;55.784;49.138;2023-02-24T13:36:46;14.43;;;4.80;;
67712;SDS011;67640;55.784;49.138;2023-02-24T14:04:10;17.67;;;5.00;;
67712;SDS011;67640;55.784;49.138;2023-02-24T14:09:26;13.48;;;4.80;;
67712;SDS011;67640;55.784;49.138;2023-02-24T14:14:32;14.83;;;5.63;;
67712;SDS011;67640;55.784;49.138;2023-02-24T14:19:51;14.60;;;3.85;;
67712;SDS011;67640;55.784;49.138;2023-02-24T14:25:13;14.77;;;5.07;;
67712;SDS011;67640;55.784;49.138;2023-02-24T14:30:24;16.87;;;4.70;;
67712;SDS011;67640;55.784;49.138;2023-02-24T14:35:53;14.43;;;4.80;;
67712;SDS011;67640;55.784;49.138;2023-02-24T14:40:59;14.38;;;4.42;;
67712;SDS011;67640;55.784;49.138;2023-02-24T14:46:04;21.82;;;5.08;;
67712;SDS011;67640;55.784;49.138;2023-02-24T14:57:02;18.37;;;5.33;;
67712;SDS011;67640;55.784;49.138;2023-02-24T15:02:23;15.70;;;4.40;;
67712;SDS011;67640;55.784;49.138;2023-02-24T15:07:29;15.13;;;4.67;;
67712;SDS011;67640;55.784;49.138;2023-02-24T15:12:41;15.65;;;4.90;;
67712;SDS011;67640;55.784;49.138;2023-02-24T15:29:11;13.13;;;4.97;;
67712;SDS011;67640;55.784;49.138;2023-02-24T15:34:44;15.23;;;5.12;;
67712;SDS011;67640;55.784;49.138;2023-02-24T15:39:49;20.07;;;5.30;;
67712;SDS011;67640;55.784;49.138;2023-02-24T15:44:55;17.87;;;5.42;;
67712;SDS011;67640;55.784;49.138;2023-02-24T15:50:14;20.82;;;5.35;;
67712;SDS011;67640;55.784;49.138;2023-02-24T15:55:19;16.57;;;5.92;;
67712;SDS011;67640;55.784;49.138;2023-02-24T16:00:25;21.17;;;6.42;;
67712;SDS011;67640;55.784;49.138;2023-02-24T16:05:44;16.30;;;5.70;;
67712;SDS011;67640;55.784;49.138;2023-02-24T16:11:03;16.33;;;5.13;;
67712;SDS011;67640;55.784;49.138;2023-02-24T16:16:21;16.00;;;5.03;;
67712;SDS011;67640;55.784;49.138;2023-02-24T16:21:26;16.67;;;5.22;;
67712;SDS011;67640;55.784;49.138;2023-02-24T16:31:50;15.30;;;5.50;;
67712;SDS011;67640;55.784;49.138;2023-02-24T16:36:56;15.80;;;5.47;;
67712;SDS011;67640;55.784;49.138;2023-02-24T16:42:00;19.50;;;6.08;;
67712;SDS011;67640;55.784;49.138;2023-02-24T16:47:19;16.70;;;5.43;;
67712;SDS011;67640;55.784;49.138;2023-02-24T16:52:25;15.93;;;5.62;;
67712;SDS011;67640;55.784;49.138;2023-02-24T16:57:44;17.37;;;5.58;;
67712;SDS011;67640;55.784;49.138;2023-02-24T17:03:03;22.60;;;5.80;;
67712;SDS011;67640;55.784;49.138;2023-02-24T17:08:22;14.60;;;4.83;;
67712;SDS011;67640;55.784;49.138;2023-02-24T17:13:27;15.43;;;4.80;;
67712;SDS011;67640;55.784;49.138;2023-02-24T17:18:33;14.70;;;5.30;;
67712;SDS011;67640;55.784;49.138;2023-02-24T17:24:40;15.07;;;4.23;;
67712;SDS011;67640;55.784;49.138;2023-02-24T17:29:30;14.03;;;4.90;;
67712;SDS011;67640;55.784;49.138;2023-02-24T17:34:34;14.40;;;4.30;;
67712;SDS011;67640;55.784;49.138;2023-02-24T17:40:05;16.93;;;5.23;;
67712;SDS011;67640;55.784;49.138;2023-02-24T17:45:26;15.72;;;4.58;;
67712;SDS011;67640;55.784;49.138;2023-02-24T17:50:32;15.30;;;4.60;;
67712;SDS011;67640;55.784;49.138;2023-02-24T17:55:37;12.75;;;3.95;;
67712;SDS011;67640;55.784;49.138;2023-02-24T18:00:42;12.23;;;4.47;;
67712;SDS011;67640;55.784;49.138;2023-02-24T18:06:01;15.15;;;4.78;;
67712;SDS011;67640;55.784;49.138;2023-02-24T18:11:06;21.83;;;4.37;;
67712;SDS011;67640;55.784;49.138;2023-02-24T18:16:13;17.30;;;5.30;;
67712;SDS011;67640;55.784;49.138;2023-02-24T18:21:31;14.05;;;3.92;;
67712;SDS011;67640;55.784;49.138;2023-02-24T18:26:37;18.00;;;3.97;;
67712;SDS011;67640;55.784;49.138;2023-02-24T18:31:56;13.72;;;3.92;;
67712;SDS011;67640;55.784;49.138;2023-02-24T18:37:15;9.48;;;3.35;;
67712;SDS011;67640;55.784;49.138;2023-02-24T18:42:19;19.30;;;4.62;;
67712;SDS011;67640;55.784;49.138;2023-02-24T18:47:39;16.23;;;3.70;;
67712;SDS011;67640;55.784;49.138;2023-02-24T18:52:44;13.67;;;4.07;;
67712;SDS011;67640;55.784;49.138;2023-02-24T18:57:49;16.40;;;4.25;;
67712;SDS011;67640;55.784;49.138;2023-02-24T19:03:19;15.15;;;4.65;;
67712;SDS011;67640;55.784;49.138;2023-02-24T19:08:24;12.80;;;4.20;;
67712;SDS011;67640;55.784;49.138;2023-02-24T19:13:43;11.63;;;3.77;;
67712;SDS011;67640;55.784;49.138;2023-02-24T19:19:02;17.00;;;4.20;;
67712;SDS011;67640;55.784;49.138;2023-02-24T19:24:21;14.20;;;4.17;;
67712;SDS011;67640;55.784;49.138;2023-02-24T19:29:41;14.30;;;3.87;;
67712;SDS011;67640;55.784;49.138;2023-02-24T19:34:45;11.77;;;3.43;;
67712;SDS011;67640;55.784;49.138;2023-02-24T19:40:03;13.90;;;3.70;;
67712;SDS011;67640;55.784;49.138;2023-02-24T19:45:09;12.15;;;4.40;;
67712;SDS011;67640;55.784;49.138;2023-02-24T19:50:28;14.40;;;4.35;;
67712;SDS011;67640;55.784;49.138;2023-02-24T19:55:47;10.00;;;3.17;;
67712;SDS011;67640;55.784;49.138;2023-02-24T20:01:08;12.75;;;3.77;;
67712;SDS011;67640;55.784;49.138;2023-02-24T20:11:53;10.18;;;3.83;;
67712;SDS011;67640;55.784;49.138;2023-02-24T20:16:59;16.77;;;4.22;;
67712;SDS011;67640;55.784;49.138;2023-02-24T20:22:18;13.03;;;4.00;;
67712;SDS011;67640;55.784;49.138;2023-02-24T20:27:23;9.95;;;3.05;;
67712;SDS011;67640;55.784;49.138;2023-02-24T20:32:40;14.73;;;3.58;;
67712;SDS011;67640;55.784;49.138;2023-02-24T20:37:45;12.28;;;3.85;;
67712;SDS011;67640;55.784;49.138;2023-02-24T20:42:50;17.50;;;4.08;;
67712;SDS011;67640;55.784;49.138;2023-02-24T20:48:09;13.75;;;4.40;;
67712;SDS011;67640;55.784;49.138;2023-02-24T20:53:33;12.70;;;4.72;;
67712;SDS011;67640;55.784;49.138;2023-02-24T20:58:40;23.83;;;5.97;;
67712;SDS011;67640;55.784;49.138;2023-02-24T21:03:45;28.52;;;6.05;;
67712;SDS011;67640;55.784;49.138;2023-02-24T21:08:50;15.87;;;4.03;;
67712;SDS011;67640;55.784;49.138;2023-02-24T21:14:21;11.97;;;4.10;;
67712;SDS011;67640;55.784;49.138;2023-02-24T21:19:26;13.00;;;4.30;;
67712;SDS011;67640;55.784;49.138;2023-02-24T21:24:45;18.20;;;5.45;;
67712;SDS011;67640;55.784;49.138;2023-02-24T21:29:51;14.75;;;4.60;;
67712;SDS011;67640;55.784;49.138;2023-02-24T21:35:02;13.60;;;4.55;;
67712;SDS011;67640;55.784;49.138;2023-02-24T21:40:21;13.67;;;4.20;;
67712;SDS011;67640;55.784;49.138;2023-02-24T21:45:26;13.05;;;3.58;;
67712;SDS011;67640;55.784;49.138;2023-02-24T21:50:44;19.00;;;5.28;;
67712;SDS011;67640;55.784;49.138;2023-02-24T21:55:49;18.17;;;5.33;;
67712;SDS011;67640;55.784;49.138;2023-02-24T22:01:09;13.65;;;4.87;;
67712;SDS011;67640;55.784;49.138;2023-02-24T22:06:28;14.73;;;4.92;;
67712;SDS011;67640;55.784;49.138;2023-02-24T22:11:35;14.28;;;4.55;;
67712;SDS011;67640;55.784;49.138;2023-02-24T22:16:40;16.77;;;4.53;;
67712;SDS011;67640;55.784;49.138;2023-02-24T22:21:59;18.62;;;5.15;;
67712;SDS011;67640;55.784;49.138;2023-02-24T22:27:23;12.85;;;3.83;;
67712;SDS011;67640;55.784;49.138;2023-02-24T22:32:28;19.30;;;4.93;;
67712;SDS011;67640;55.784;49.138;2023-02-24T22:37:34;15.23;;;4.78;;
67712;SDS011;67640;55.784;49.138;2023-02-24T22:42:53;14.97;;;4.87;;
67712;SDS011;67640;55.784;49.138;2023-02-24T22:48:12;17.00;;;5.10;;
67712;SDS011;67640;55.784;49.138;2023-02-24T22:53:33;17.07;;;4.50;;
67712;SDS011;67640;55.784;49.138;2023-02-24T22:58:59;13.65;;;4.20;;
67712;SDS011;67640;55.784;49.138;2023-02-24T23:04:05;18.77;;;5.45;;
67712;SDS011;67640;55.784;49.138;2023-02-24T23:09:11;17.20;;;4.83;;
67712;SDS011;67640;55.784;49.138;2023-02-24T23:14:17;14.27;;;4.77;;
67712;SDS011;67640;55.784;49.138;2023-02-24T23:19:34;15.47;;;4.90;;
67712;SDS011;67640;55.784;49.138;2023-02-24T23:24:40;18.20;;;5.47;;
67712;SDS011;67640;55.784;49.138;2023-02-24T23:29:57;16.12;;;4.90;;
67712;SDS011;67640;55.784;49.138;2023-02-24T23:35:02;16.37;;;4.70;;
67712;SDS011;67640;55.784;49.138;2023-02-24T23:40:22;14.58;;;4.50;;
67712;SDS011;67640;55.784;49.138;2023-02-24T23:45:41;17.92;;;4.58;;
67712;SDS011;67640;55.784;49.138;2023-02-24T23:50:46;19.05;;;5.90;;
67712;SDS011;67640;55.784;49.138;2023-02-24T23:56:06;14.18;;;4.80;;
